Time;durP1;ratioP1;P1;durP2;ratioP2;P2;SDS_P1;SDS_P2;PMS_P1;PMS_P2;Temp;Humidity;BMP_temperature;BMP_pressure;BME280_temperature;BME280_humidity;BME280_pressure;Samples;Min_cycle;Max_cycle;Signal;HPM_P1;HPM_P2
2022/12/31 00:00:07;;;;;;;3.23;0.70;;;13.00;99.90;;;;;;5063907;28;20180;-83
2022/12/31 00:02:33;;;;;;;4.63;0.60;;;12.90;99.90;;;;;;5066048;28;20243;-82
2022/12/31 00:04:59;;;;;;;0.80;0.80;;;12.90;99.90;;;;;;5070524;28;20835;-83
2022/12/31 00:07:24;;;;;;;0.53;0.47;;;12.90;99.90;;;;;;5066486;28;20207;-83
2022/12/31 00:09:50;;;;;;;0.50;0.43;;;12.90;99.90;;;;;;5066787;28;20177;-83
2022/12/31 00:12:15;;;;;;;1.10;0.60;;;12.90;99.90;;;;;;5056535;28;20207;-82
2022/12/31 00:14:41;;;;;;;0.50;0.50;;;12.90;99.90;;;;;;5048844;28;20216;-84
2022/12/31 00:17:06;;;;;;;2.80;0.60;;;12.90;99.90;;;;;;5052733;28;20474;-85
2022/12/31 00:19:32;;;;;;;0.73;0.70;;;12.90;99.90;;;;;;5051889;28;20684;-86
2022/12/31 00:21:57;;;;;;;0.80;0.50;;;12.90;99.90;;;;;;5051397;28;20220;-86
2022/12/31 00:24:23;;;;;;;1.00;0.70;;;12.90;99.90;;;;;;5052137;28;20178;-86
2022/12/31 00:26:48;;;;;;;0.60;0.50;;;12.90;99.90;;;;;;5065613;28;20180;-86
2022/12/31 00:29:14;;;;;;;0.60;0.50;;;13.00;99.90;;;;;;5072430;28;20173;-86
2022/12/31 00:31:39;;;;;;;1.70;0.50;;;12.90;99.90;;;;;;5069929;28;20221;-86
2022/12/31 00:34:05;;;;;;;0.77;0.60;;;12.90;99.90;;;;;;5073565;28;20177;-86
2022/12/31 00:36:36;;;;;;;2.00;0.80;;;12.80;99.90;;;;;;5072694;28;20226;-86
2022/12/31 00:39:04;;;;;;;0.70;0.53;;;12.80;99.90;;;;;;5073225;28;20914;-86
2022/12/31 00:41:30;;;;;;;0.87;0.60;;;12.80;99.90;;;;;;5039906;28;20463;-86
2022/12/31 00:43:56;;;;;;;1.30;0.60;;;12.90;99.90;;;;;;5072387;28;20419;-86
2022/12/31 00:46:22;;;;;;;0.70;0.60;;;13.00;99.90;;;;;;5072706;28;20554;-87
2022/12/31 00:48:48;;;;;;;0.77;0.60;;;13.00;99.90;;;;;;5069040;28;20177;-88
2022/12/31 00:51:15;;;;;;;0.80;0.50;;;13.20;99.90;;;;;;5070023;28;20676;-86
2022/12/31 00:53:43;;;;;;;0.60;0.50;;;13.20;99.90;;;;;;5069649;28;20411;-87
2022/12/31 00:56:10;;;;;;;0.67;0.50;;;13.20;99.90;;;;;;5070144;28;20411;-86
2022/12/31 00:58:36;;;;;;;0.70;0.50;;;13.20;99.90;;;;;;5051647;28;20510;-86
2022/12/31 01:01:18;;;;;;;0.70;0.70;;;13.40;99.90;;;;;;5070256;28;20465;-86
2022/12/31 01:03:45;;;;;;;0.50;0.50;;;13.50;99.90;;;;;;5071588;28;20411;-87
2022/12/31 01:06:11;;;;;;;1.87;0.50;;;13.50;99.90;;;;;;5072461;28;20403;-87
2022/12/31 01:08:37;;;;;;;0.90;0.60;;;13.50;99.90;;;;;;5071789;28;20417;-86
2022/12/31 01:11:18;;;;;;;0.97;0.90;;;13.40;99.90;;;;;;5071335;28;20692;-86
2022/12/31 01:13:44;;;;;;;0.93;0.70;;;13.40;99.90;;;;;;5072334;28;20431;-87
2022/12/31 01:16:12;;;;;;;0.60;0.60;;;13.40;99.90;;;;;;5071376;28;20407;-87
2022/12/31 01:18:38;;;;;;;0.80;0.70;;;13.40;99.90;;;;;;5053440;28;20525;-87
2022/12/31 01:21:06;;;;;;;1.77;0.63;;;13.40;99.90;;;;;;5071446;28;20537;-87
2022/12/31 01:23:32;;;;;;;3.03;0.50;;;13.50;99.90;;;;;;5072016;28;20411;-87
2022/12/31 01:26:03;;;;;;;0.50;0.50;;;13.40;99.90;;;;;;5053674;28;20415;-87
2022/12/31 01:28:29;;;;;;;1.03;0.70;;;13.30;99.90;;;;;;5071766;28;20464;-87
2022/12/31 01:30:55;;;;;;;3.03;0.60;;;13.30;99.90;;;;;;5071390;28;20431;-87
2022/12/31 01:33:21;;;;;;;0.53;0.50;;;13.30;99.90;;;;;;5074121;28;20414;-86
2022/12/31 01:35:47;;;;;;;0.67;0.67;;;13.30;99.90;;;;;;5075710;28;20178;-86
2022/12/31 01:38:13;;;;;;;3.23;0.70;;;13.40;99.90;;;;;;5076130;28;20409;-85
2022/12/31 01:40:40;;;;;;;0.60;0.60;;;13.50;99.90;;;;;;5075566;28;20462;-86
2022/12/31 01:43:15;;;;;;;1.17;0.40;;;13.50;99.90;;;;;;5075410;28;20169;-86
2022/12/31 01:45:43;;;;;;;2.43;0.60;;;13.40;99.90;;;;;;5076137;28;20447;-86
2022/12/31 01:48:12;;;;;;;0.70;0.60;;;13.40;99.90;;;;;;5074958;28;20536;-86
2022/12/31 01:50:39;;;;;;;0.50;0.40;;;13.40;99.90;;;;;;5075360;28;21144;-86
2022/12/31 01:53:07;;;;;;;2.50;1.00;;;13.40;99.90;;;;;;5075091;28;20407;-87
2022/12/31 01:55:42;;;;;;;1.63;0.60;;;13.30;99.90;;;;;;5075417;28;20414;-86
2022/12/31 01:58:13;;;;;;;0.70;0.60;;;13.40;99.90;;;;;;5075271;28;20467;-87
2022/12/31 03:31:15;;;;;;;0.77;0.53;;;14.00;99.90;;;;;;5850276;22;20511;-71
2022/12/31 03:33:41;;;;;;;0.90;0.53;;;14.00;99.90;;;;;;5047688;28;20411;-73
2022/12/31 03:36:10;;;;;;;0.93;0.53;;;14.10;99.90;;;;;;5051501;28;20205;-74
2022/12/31 03:38:36;;;;;;;2.60;0.50;;;14.10;99.90;;;;;;5051654;28;20620;-73
2022/12/31 03:41:02;;;;;;;0.60;0.50;;;14.20;99.90;;;;;;5051871;28;20463;-73
2022/12/31 03:43:27;;;;;;;1.60;0.53;;;14.40;99.90;;;;;;5051804;28;20212;-73
2022/12/31 03:45:53;;;;;;;0.70;0.60;;;14.50;99.90;;;;;;5052063;28;20552;-73
2022/12/31 03:48:21;;;;;;;0.57;0.40;;;14.50;99.90;;;;;;5050846;28;20204;-73
2022/12/31 03:50:46;;;;;;;0.60;0.60;;;14.50;99.90;;;;;;5051008;28;20427;-73
2022/12/31 03:53:13;;;;;;;2.00;0.47;;;14.50;99.90;;;;;;5052127;28;20415;-73
2022/12/31 03:55:38;;;;;;;0.80;0.50;;;14.50;99.90;;;;;;5051561;28;20189;-73
2022/12/31 03:58:04;;;;;;;0.60;0.50;;;14.60;99.90;;;;;;5052424;28;20408;-73
2022/12/31 04:00:29;;;;;;;0.70;0.60;;;14.60;99.90;;;;;;5052890;28;20201;-73
2022/12/31 04:02:55;;;;;;;0.80;0.60;;;14.70;99.90;;;;;;5051929;28;20247;-72
2022/12/31 04:05:21;;;;;;;0.60;0.50;;;14.70;99.90;;;;;;5052312;28;20180;-73
2022/12/31 04:07:47;;;;;;;1.00;0.60;;;14.60;99.90;;;;;;5052100;28;20219;-73
2022/12/31 04:10:14;;;;;;;0.60;0.50;;;14.70;99.90;;;;;;5052246;28;20407;-74
2022/12/31 04:12:40;;;;;;;0.90;0.60;;;14.70;99.90;;;;;;5051785;28;20931;-72
2022/12/31 04:15:08;;;;;;;0.57;0.50;;;14.70;99.90;;;;;;5052321;28;20469;-73
2022/12/31 04:17:34;;;;;;;0.60;0.60;;;14.80;99.90;;;;;;5052810;28;20407;-74
2022/12/31 04:19:59;;;;;;;0.63;0.60;;;14.80;99.90;;;;;;5052580;28;20411;-75
2022/12/31 04:22:24;;;;;;;0.70;0.50;;;14.80;99.90;;;;;;5052087;28;20205;-74
2022/12/31 04:24:50;;;;;;;6.27;0.50;;;14.90;99.90;;;;;;5052391;28;20173;-74
2022/12/31 04:27:16;;;;;;;0.87;0.50;;;14.90;99.90;;;;;;5052393;28;20580;-73
2022/12/31 04:29:41;;;;;;;0.97;0.47;;;15.00;99.90;;;;;;5052248;28;20382;-73
2022/12/31 04:32:07;;;;;;;0.70;0.60;;;15.00;99.90;;;;;;5051818;28;20300;-73
2022/12/31 04:34:33;;;;;;;1.80;0.93;;;15.00;99.90;;;;;;5034415;28;20528;-73
2022/12/31 04:36:59;;;;;;;1.70;0.70;;;15.00;99.90;;;;;;5051966;28;20503;-73
2022/12/31 04:39:25;;;;;;;0.60;0.50;;;15.00;99.90;;;;;;5034295;28;20177;-74
2022/12/31 04:41:50;;;;;;;0.60;0.60;;;15.00;99.90;;;;;;5051279;28;20459;-73
2022/12/31 04:44:16;;;;;;;0.60;0.57;;;14.90;99.90;;;;;;5051835;28;20176;-73
2022/12/31 04:46:42;;;;;;;0.70;0.50;;;14.90;99.90;;;;;;5051711;28;20176;-73
2022/12/31 04:49:08;;;;;;;1.33;0.50;;;14.90;99.90;;;;;;5051767;28;20212;-73
2022/12/31 04:51:33;;;;;;;0.87;0.50;;;14.90;99.90;;;;;;5051222;28;20197;-73
2022/12/31 04:53:59;;;;;;;0.60;0.50;;;14.90;99.90;;;;;;5051360;28;20415;-73
2022/12/31 04:56:26;;;;;;;1.43;0.50;;;14.90;99.90;;;;;;5051519;28;20173;-72
2022/12/31 04:58:51;;;;;;;0.60;0.43;;;15.00;99.90;;;;;;5051240;28;20650;-73
2022/12/31 05:01:17;;;;;;;0.93;0.50;;;15.00;99.90;;;;;;5051153;28;20513;-73
2022/12/31 05:03:43;;;;;;;0.67;0.50;;;15.00;99.90;;;;;;5051138;28;20200;-73
2022/12/31 05:06:12;;;;;;;0.70;0.50;;;15.00;99.90;;;;;;5051425;28;20170;-74
2022/12/31 05:08:38;;;;;;;1.67;0.60;;;15.00;99.90;;;;;;5051056;28;20169;-73
2022/12/31 05:11:03;;;;;;;0.60;0.50;;;15.00;99.90;;;;;;5033260;28;21013;-73
2022/12/31 05:13:29;;;;;;;1.27;0.40;;;15.00;99.90;;;;;;5051125;28;20177;-73
2022/12/31 05:15:54;;;;;;;0.53;0.50;;;15.00;99.90;;;;;;5051283;28;20195;-73
2022/12/31 05:18:20;;;;;;;1.47;0.50;;;14.90;99.90;;;;;;5051182;28;20177;-73
2022/12/31 05:20:46;;;;;;;0.83;0.50;;;14.90;99.90;;;;;;5050949;28;20204;-73
2022/12/31 05:23:13;;;;;;;2.10;0.50;;;14.90;99.90;;;;;;5050961;28;20200;-73
2022/12/31 05:25:39;;;;;;;0.67;0.50;;;14.90;99.90;;;;;;5051095;28;20408;-73
2022/12/31 05:28:04;;;;;;;0.50;0.50;;;14.90;99.90;;;;;;5051112;28;20408;-72
2022/12/31 05:30:30;;;;;;;0.90;0.50;;;14.90;99.90;;;;;;5051067;28;20412;-73
2022/12/31 05:32:55;;;;;;;0.60;0.40;;;14.90;99.90;;;;;;5050649;28;20221;-72
2022/12/31 05:35:21;;;;;;;2.93;0.60;;;14.80;99.90;;;;;;5051101;28;20204;-73
2022/12/31 05:37:46;;;;;;;1.00;0.70;;;14.80;99.90;;;;;;5050943;28;20177;-73
2022/12/31 05:40:12;;;;;;;0.60;0.50;;;14.80;99.90;;;;;;5033084;28;20173;-73
2022/12/31 05:42:38;;;;;;;1.93;0.50;;;14.80;99.90;;;;;;5050606;28;20608;-74
2022/12/31 05:45:04;;;;;;;0.83;0.50;;;14.80;99.90;;;;;;5050937;28;20181;-73
2022/12/31 05:47:30;;;;;;;1.37;0.70;;;14.80;99.90;;;;;;5050872;28;20823;-73
2022/12/31 05:49:55;;;;;;;22.30;2.30;;;14.80;99.90;;;;;;5050976;28;20423;-73
2022/12/31 05:52:21;;;;;;;36.57;0.80;;;14.90;99.90;;;;;;5050538;28;20673;-73
2022/12/31 05:54:46;;;;;;;1.10;0.67;;;14.90;99.90;;;;;;5050882;28;20299;-72
2022/12/31 05:57:12;;;;;;;0.80;0.47;;;14.80;99.90;;;;;;5050785;28;20547;-71
2022/12/31 05:59:38;;;;;;;1.20;0.53;;;14.80;99.90;;;;;;5050720;28;20664;-73
2022/12/31 06:02:04;;;;;;;0.83;0.60;;;14.80;99.90;;;;;;5050439;28;20284;-72
2022/12/31 06:04:29;;;;;;;1.23;0.67;;;14.80;99.90;;;;;;5050486;28;20184;-72
2022/12/31 06:06:55;;;;;;;1.73;0.50;;;14.80;99.90;;;;;;5050661;28;20545;-72
2022/12/31 06:09:21;;;;;;;0.80;0.50;;;14.80;99.90;;;;;;5050827;28;20562;-72
2022/12/31 06:11:46;;;;;;;0.90;0.50;;;14.80;99.90;;;;;;5050225;28;20579;-72
2022/12/31 06:14:12;;;;;;;1.17;0.60;;;14.80;99.90;;;;;;5051284;28;20433;-72
2022/12/31 06:16:38;;;;;;;1.40;0.60;;;14.80;99.90;;;;;;5050561;28;20185;-72
2022/12/31 06:19:04;;;;;;;0.90;0.50;;;14.90;99.90;;;;;;5052382;28;20229;-72
2022/12/31 06:21:29;;;;;;;1.20;0.57;;;14.90;99.90;;;;;;5053904;28;20463;-72
2022/12/31 06:23:55;;;;;;;2.17;1.00;;;15.00;99.90;;;;;;5054049;28;20177;-73
2022/12/31 06:26:20;;;;;;;1.77;0.70;;;14.90;99.90;;;;;;5054262;28;20173;-72
2022/12/31 06:28:46;;;;;;;0.93;0.60;;;14.80;99.90;;;;;;5053794;28;20668;-72
2022/12/31 06:31:13;;;;;;;1.33;0.50;;;14.80;99.90;;;;;;5053703;28;20209;-72
2022/12/31 06:33:39;;;;;;;1.07;0.70;;;14.80;99.90;;;;;;5053863;28;20650;-72
2022/12/31 06:36:07;;;;;;;0.73;0.50;;;14.70;99.90;;;;;;5054054;28;20427;-72
2022/12/31 06:38:35;;;;;;;0.90;0.50;;;14.60;99.90;;;;;;5053740;28;20412;-72
2022/12/31 06:41:06;;;;;;;0.90;0.50;;;14.60;99.90;;;;;;5053568;28;20471;-72
2022/12/31 06:43:34;;;;;;;1.27;0.70;;;14.60;99.90;;;;;;5054075;28;20415;-72
2022/12/31 06:46:04;;;;;;;0.93;0.50;;;14.50;99.90;;;;;;5053635;28;20418;-72
2022/12/31 06:48:29;;;;;;;0.90;0.60;;;14.40;99.90;;;;;;5053762;28;20502;-73
2022/12/31 06:50:55;;;;;;;1.37;0.70;;;14.40;99.90;;;;;;5053419;28;20502;-72
2022/12/31 06:53:21;;;;;;;1.43;0.60;;;14.40;99.90;;;;;;5053419;28;20181;-72
2022/12/31 06:55:48;;;;;;;1.10;0.70;;;14.40;99.90;;;;;;5053431;28;20904;-73
2022/12/31 06:58:15;;;;;;;1.13;0.60;;;14.40;99.90;;;;;;5053427;28;20288;-72
2022/12/31 07:01:07;;;;;;;0.80;0.50;;;14.40;99.90;;;;;;5035281;28;20463;-72
2022/12/31 07:03:38;;;;;;;1.43;0.60;;;14.40;99.90;;;;;;5053412;28;20408;-71
2022/12/31 07:06:16;;;;;;;1.10;0.60;;;14.40;99.90;;;;;;5053454;28;20907;-71
2022/12/31 07:09:00;;;;;;;1.37;0.50;;;14.30;99.90;;;;;;5053309;28;20746;-71
2022/12/31 07:11:43;;;;;;;1.40;0.60;;;14.30;99.90;;;;;;5052912;28;20439;-71
2022/12/31 07:14:36;;;;;;;2.50;0.60;;;14.30;99.90;;;;;;5052579;28;20423;-71
2022/12/31 07:17:07;;;;;;;0.90;0.60;;;14.30;99.90;;;;;;5033383;28;20427;-71
2022/12/31 07:20:04;;;;;;;1.27;0.60;;;14.30;99.90;;;;;;5051375;28;20511;-70
2022/12/31 07:22:29;;;;;;;2.33;0.70;;;14.40;99.90;;;;;;5050899;28;20498;-70
2022/12/31 07:24:55;;;;;;;1.27;0.60;;;14.40;99.90;;;;;;5051307;28;20847;-71
2022/12/31 07:27:39;;;;;;;0.80;0.53;;;14.40;99.90;;;;;;5051396;28;20243;-71
2022/12/31 07:30:10;;;;;;;1.43;0.70;;;14.50;99.90;;;;;;5050944;28;20209;-71
2022/12/31 07:32:42;;;;;;;1.00;0.53;;;14.50;99.90;;;;;;5052164;28;20497;-72
2022/12/31 07:35:13;;;;;;;1.10;0.60;;;14.60;99.90;;;;;;5052820;28;20412;-71
2022/12/31 07:38:11;;;;;;;1.67;0.50;;;14.70;99.90;;;;;;5052650;28;20412;-71
2022/12/31 07:40:54;;;;;;;1.80;0.70;;;14.70;99.90;;;;;;5052477;28;20447;-70
2022/12/31 07:43:50;;;;;;;1.20;0.70;;;14.70;99.90;;;;;;5052485;28;20398;-71
2022/12/31 07:46:24;;;;;;;1.00;0.83;;;14.80;99.90;;;;;;5052667;28;20400;-70
2022/12/31 07:48:50;;;;;;;1.00;0.60;;;14.80;99.90;;;;;;5052266;28;20435;-70
2022/12/31 07:51:16;;;;;;;1.10;0.60;;;14.80;99.90;;;;;;5052125;28;20836;-70
2022/12/31 07:53:41;;;;;;;0.87;0.50;;;14.90;99.90;;;;;;5052226;28;20711;-71
2022/12/31 07:56:08;;;;;;;1.37;0.70;;;15.00;99.90;;;;;;5052423;28;20173;-71
2022/12/31 07:58:48;;;;;;;1.00;0.50;;;15.00;99.90;;;;;;5051283;28;20181;-70
2022/12/31 08:01:18;;;;;;;0.90;0.47;;;15.00;99.90;;;;;;5050707;28;20463;-71
2022/12/31 08:04:08;;;;;;;2.70;0.60;;;15.10;99.90;;;;;;5050745;28;20420;-72
2022/12/31 08:06:52;;;;;;;0.90;0.50;;;15.10;99.90;;;;;;5050773;28;20463;-71
2022/12/31 08:09:21;;;;;;;1.07;0.50;;;15.10;99.90;;;;;;5050766;28;20412;-71
2022/12/31 08:11:56;;;;;;;2.63;0.60;;;15.20;99.90;;;;;;5050309;28;20428;-71
2022/12/31 08:14:22;;;;;;;1.37;0.50;;;15.20;99.90;;;;;;5052157;28;20412;-71
2022/12/31 08:16:49;;;;;;;1.20;0.60;;;15.30;99.90;;;;;;5051583;28;20787;-71
2022/12/31 08:19:24;;;;;;;1.10;0.60;;;15.30;99.90;;;;;;5051945;28;20412;-71
2022/12/31 08:22:08;;;;;;;0.90;0.60;;;15.40;99.90;;;;;;5051651;28;20544;-70
2022/12/31 08:25:01;;;;;;;5.47;0.80;;;15.50;99.90;;;;;;5051713;28;20500;-70
2022/12/31 08:27:26;;;;;;;1.57;0.50;;;15.50;99.90;;;;;;5051887;28;21078;-69
2022/12/31 08:29:58;;;;;;;3.00;0.87;;;15.60;99.90;;;;;;5051705;28;20454;-71
2022/12/31 08:32:45;;;;;;;3.10;0.60;;;15.70;99.90;;;;;;5050955;28;20217;-70
2022/12/31 08:35:41;;;;;;;1.00;0.70;;;15.70;99.90;;;;;;5051845;28;20485;-71
2022/12/31 08:38:31;;;;;;;5.30;0.60;;;15.80;99.90;;;;;;5051707;28;20412;-71
2022/12/31 08:41:03;;;;;;;1.20;0.50;;;15.80;99.90;;;;;;5051145;28;20464;-71
2022/12/31 08:43:42;;;;;;;1.10;0.70;;;15.80;99.90;;;;;;5051509;28;20416;-71
2022/12/31 08:46:20;;;;;;;0.90;0.50;;;15.80;99.90;;;;;;5051764;28;20419;-70
2022/12/31 08:48:47;;;;;;;1.03;0.60;;;15.90;99.90;;;;;;5051384;28;20904;-71
2022/12/31 08:51:19;;;;;;;1.10;0.50;;;15.90;99.90;;;;;;5051284;28;20943;-71
2022/12/31 08:53:47;;;;;;;1.20;0.50;;;15.90;99.90;;;;;;5051209;28;20468;-71
2022/12/31 08:56:22;;;;;;;1.10;0.50;;;15.90;99.90;;;;;;5051948;28;21222;-70
2022/12/31 08:59:12;;;;;;;1.00;0.60;;;16.00;99.90;;;;;;5051261;28;20510;-71
2022/12/31 09:02:07;;;;;;;2.70;0.60;;;16.00;99.90;;;;;;5051216;28;20462;-70
2022/12/31 09:04:53;;;;;;;0.90;0.53;;;16.10;99.90;;;;;;5051281;28;20412;-70
2022/12/31 09:07:28;;;;;;;1.03;0.60;;;16.10;99.90;;;;;;5051534;28;20514;-70
2022/12/31 09:10:13;;;;;;;1.00;0.50;;;16.20;99.90;;;;;;5050898;28;20422;-71
2022/12/31 09:13:05;;;;;;;1.17;0.83;;;16.20;99.90;;;;;;5050917;28;20427;-70
2022/12/31 09:15:52;;;;;;;1.00;0.50;;;16.30;99.90;;;;;;5051274;28;20968;-71
2022/12/31 09:18:18;;;;;;;2.50;0.50;;;16.30;99.90;;;;;;5051305;28;20449;-70
2022/12/31 09:20:44;;;;;;;2.30;0.80;;;16.50;99.90;;;;;;5050646;28;20467;-70
2022/12/31 09:23:11;;;;;;;1.73;0.57;;;16.80;99.90;;;;;;5050904;28;20178;-71
2022/12/31 09:25:49;;;;;;;3.07;0.63;;;17.10;99.90;;;;;;5051026;28;20190;-71
2022/12/31 09:28:30;;;;;;;3.00;0.83;;;17.50;99.90;;;;;;5051139;28;20412;-70
2022/12/31 09:31:13;;;;;;;3.93;0.87;;;17.70;99.90;;;;;;5050646;28;20565;-71
2022/12/31 09:33:51;;;;;;;0.80;0.47;;;18.10;99.90;;;;;;5051139;28;20825;-71
2022/12/31 09:36:26;;;;;;;0.90;0.50;;;18.30;99.90;;;;;;5050923;28;20433;-71
2022/12/31 09:39:19;;;;;;;1.67;0.60;;;18.40;99.90;;;;;;5052445;28;20414;-76
2022/12/31 09:42:18;;;;;;;1.93;0.50;;;18.40;99.90;;;;;;5049600;28;20487;-71
2022/12/31 09:45:05;;;;;;;1.37;0.60;;;18.40;99.90;;;;;;5050650;28;20827;-70
2022/12/31 09:51:17;;;;;;;3.77;0.60;;;18.70;99.90;;;;;;5050702;28;20462;-71
2022/12/31 09:53:48;;;;;;;2.50;0.60;;;19.00;99.90;;;;;;5048130;28;20471;-71
2022/12/31 09:56:31;;;;;;;0.80;0.47;;;19.00;99.90;;;;;;5051283;28;20431;-71
2022/12/31 09:59:13;;;;;;;0.80;0.60;;;18.90;99.90;;;;;;5054524;28;20994;-70
2022/12/31 10:02:07;;;;;;;0.80;0.60;;;18.90;99.90;;;;;;5053975;28;20466;-71
2022/12/31 10:04:58;;;;;;;0.77;0.47;;;19.10;99.90;;;;;;5049616;28;20874;-71
2022/12/31 10:08:11;;;;;;;1.03;0.47;;;19.40;99.90;;;;;;5052270;28;20443;-71
2022/12/31 10:10:50;;;;;;;1.83;0.70;;;19.70;99.90;;;;;;5044604;28;20927;-69
2022/12/31 10:14:06;;;;;;;1.73;0.70;;;20.00;99.90;;;;;;5051353;28;20427;-71
2022/12/31 10:16:58;;;;;;;9.87;0.80;;;20.10;99.90;;;;;;5044808;28;20517;-71
2022/12/31 10:19:48;;;;;;;65.30;12.33;;;19.90;99.90;;;;;;5052913;28;20450;-72
2022/12/31 10:22:30;;;;;;;53.10;1.00;;;19.80;99.90;;;;;;5045998;28;20524;-71
2022/12/31 10:25:24;;;;;;;54.07;0.90;;;19.90;99.90;;;;;;5035757;28;20848;-71
2022/12/31 10:28:10;;;;;;;52.00;0.80;;;19.60;99.90;;;;;;4987600;28;20562;-71
2022/12/31 10:30:42;;;;;;;41.37;0.80;;;19.60;99.90;;;;;;5053457;28;20454;-71
2022/12/31 10:33:26;;;;;;;15.20;0.70;;;19.70;99.90;;;;;;5053340;28;20518;-75
2022/12/31 10:36:14;;;;;;;14.77;0.80;;;19.80;99.90;;;;;;5046724;28;20456;-70
2022/12/31 10:39:13;;;;;;;13.83;0.50;;;19.80;99.90;;;;;;5048726;28;20435;-70
2022/12/31 10:42:06;;;;;;;14.10;0.70;;;19.90;99.90;;;;;;5049959;28;20466;-71
2022/12/31 10:45:09;;;;;;;15.60;1.27;;;20.10;99.90;;;;;;5051705;28;20435;-70
2022/12/31 10:47:44;;;;;;;13.80;0.60;;;20.10;99.90;;;;;;5052105;28;20442;-70
2022/12/31 10:50:45;;;;;;;14.77;0.70;;;20.20;99.90;;;;;;5052144;28;20433;-71
2022/12/31 10:53:11;;;;;;;14.00;0.80;;;20.20;99.90;;;;;;5052927;28;20425;-71
2022/12/31 10:55:45;;;;;;;14.00;0.50;;;20.30;99.90;;;;;;5051994;28;20431;-72
2022/12/31 10:58:58;;;;;;;13.63;0.60;;;20.30;99.90;;;;;;5052808;28;20189;-69
2022/12/31 11:01:31;;;;;;;19.50;0.90;;;20.30;99.90;;;;;;5029070;28;20530;-70
2022/12/31 11:04:43;;;;;;;14.37;0.60;;;20.50;99.90;;;;;;5052529;28;20446;-67
2022/12/31 11:07:45;;;;;;;12.80;0.67;;;20.60;99.90;;;;;;5052728;28;20495;-67
2022/12/31 11:10:48;;;;;;;11.07;0.60;;;20.60;99.90;;;;;;5048012;28;20416;-69
2022/12/31 11:13:52;;;;;;;10.30;0.60;;;20.60;99.90;;;;;;5048370;28;20451;-69
2022/12/31 11:16:30;;;;;;;11.47;0.63;;;20.30;99.90;;;;;;5049008;28;20416;-69
2022/12/31 11:19:24;;;;;;;9.13;0.60;;;20.30;99.90;;;;;;5050682;28;20470;-68
2022/12/31 11:22:11;;;;;;;11.20;0.83;;;20.30;99.90;;;;;;5042868;28;21022;-70
2022/12/31 11:25:10;;;;;;;8.70;0.63;;;20.20;99.90;;;;;;5052088;28;20439;-70
2022/12/31 11:28:04;;;;;;;8.57;0.70;;;20.30;99.90;;;;;;5044667;28;20427;-70
2022/12/31 11:30:56;;;;;;;8.00;0.60;;;20.30;99.90;;;;;;5050590;28;20787;-70
2022/12/31 11:33:52;;;;;;;7.80;0.50;;;20.40;99.90;;;;;;5051764;28;20415;-71
2022/12/31 11:36:40;;;;;;;7.57;0.60;;;20.40;99.90;;;;;;5049696;28;20430;-70
2022/12/31 11:39:29;;;;;;;7.70;0.63;;;20.20;99.90;;;;;;5050588;28;20493;-71
2022/12/31 11:42:10;;;;;;;6.40;0.60;;;20.00;99.90;;;;;;5051486;28;20467;-71
2022/12/31 11:44:56;;;;;;;6.43;0.60;;;19.90;99.90;;;;;;5047650;28;20430;-72
2022/12/31 11:47:33;;;;;;;3.27;0.60;;;19.90;99.90;;;;;;5045300;28;20423;-72
2022/12/31 11:50:47;;;;;;;7.37;0.60;;;20.00;99.90;;;;;;5051920;28;20419;-72
2022/12/31 11:53:37;;;;;;;6.27;0.50;;;20.10;99.90;;;;;;5028253;28;20490;-72
2022/12/31 11:56:21;;;;;;;7.20;0.50;;;20.00;99.90;;;;;;5052859;28;20813;-71
2022/12/31 11:58:52;;;;;;;4.50;0.50;;;20.10;99.90;;;;;;5052322;28;20423;-71
2022/12/31 12:01:46;;;;;;;4.23;0.60;;;20.00;99.90;;;;;;5051129;28;20485;-70
2022/12/31 12:04:11;;;;;;;2.90;0.50;;;19.90;99.90;;;;;;5051977;28;20428;-71
2022/12/31 12:06:39;;;;;;;2.20;0.50;;;19.90;99.90;;;;;;5052065;28;20935;-71
2022/12/31 12:09:10;;;;;;;3.47;0.60;;;19.90;99.90;;;;;;5051900;28;20243;-71
2022/12/31 12:11:38;;;;;;;2.80;0.50;;;19.90;99.90;;;;;;5051891;28;20470;-71
2022/12/31 12:14:21;;;;;;;3.27;0.53;;;19.90;99.90;;;;;;5051818;28;20890;-72
2022/12/31 12:16:53;;;;;;;3.13;0.60;;;19.90;99.90;;;;;;5051300;28;20431;-71
2022/12/31 12:19:19;;;;;;;2.53;0.50;;;20.00;99.90;;;;;;5037941;28;20482;-71
2022/12/31 12:21:47;;;;;;;3.20;0.60;;;20.00;99.90;;;;;;5051349;28;20459;-71
2022/12/31 12:24:20;;;;;;;80.30;19.87;;;20.00;99.90;;;;;;5051767;28;20455;-72
2022/12/31 12:26:46;;;;;;;1.60;0.50;;;20.00;99.90;;;;;;5051814;28;20435;-71
2022/12/31 12:29:17;;;;;;;1.43;0.60;;;19.80;99.90;;;;;;5051771;28;20451;-72
2022/12/31 12:31:58;;;;;;;0.93;0.50;;;19.70;99.90;;;;;;5051525;28;20213;-70
2022/12/31 12:34:35;;;;;;;16.93;1.87;;;19.60;99.90;;;;;;5044965;28;20905;-71
2022/12/31 12:37:01;;;;;;;0.80;0.50;;;19.50;99.90;;;;;;5032458;28;20416;-71
2022/12/31 12:39:29;;;;;;;0.93;0.50;;;19.50;99.90;;;;;;5051616;28;20925;-71
2022/12/31 12:42:21;;;;;;;2.63;0.57;;;19.50;99.90;;;;;;5050922;28;20464;-71
2022/12/31 12:44:46;;;;;;;0.90;0.50;;;19.40;99.90;;;;;;5046692;28;20519;-71
2022/12/31 12:47:16;;;;;;;14.17;1.50;;;19.30;99.90;;;;;;5051360;28;20510;-71
2022/12/31 12:49:47;;;;;;;0.90;0.50;;;19.30;99.90;;;;;;5050858;28;20539;-71
2022/12/31 12:52:40;;;;;;;1.57;0.40;;;19.20;99.90;;;;;;5050624;28;20430;-71
2022/12/31 12:55:14;;;;;;;0.80;0.50;;;19.20;99.90;;;;;;5051475;28;20400;-71
2022/12/31 12:57:51;;;;;;;1.80;0.40;;;19.30;99.90;;;;;;5050749;28;20805;-71
2022/12/31 13:00:31;;;;;;;3.33;0.60;;;19.30;99.90;;;;;;5051168;28;20411;-70
2022/12/31 13:03:28;;;;;;;40.27;4.67;;;19.30;99.90;;;;;;5050711;28;20478;-71
2022/12/31 13:06:12;;;;;;;1.73;0.50;;;19.20;99.90;;;;;;5051188;28;20447;-71
2022/12/31 13:08:53;;;;;;;2.37;0.40;;;19.20;99.90;;;;;;5051360;28;20415;-70
2022/12/31 13:12:00;;;;;;;0.70;0.47;;;19.20;99.90;;;;;;5051096;28;20455;-70
2022/12/31 13:15:05;;;;;;;0.60;0.40;;;19.10;99.90;;;;;;5037548;28;20427;-70
2022/12/31 13:17:42;;;;;;;3.03;0.53;;;19.10;99.90;;;;;;5051138;28;20518;-70
2022/12/31 13:20:30;;;;;;;1.10;0.53;;;19.10;99.90;;;;;;5051004;28;20419;-71
2022/12/31 13:23:06;;;;;;;0.67;0.40;;;19.10;99.90;;;;;;5050518;28;20936;-70
2022/12/31 13:25:45;;;;;;;0.80;0.50;;;19.10;99.90;;;;;;5042231;28;20483;-71
2022/12/31 13:28:14;;;;;;;0.70;0.50;;;19.00;99.90;;;;;;5036669;28;20475;-70
2022/12/31 13:30:49;;;;;;;0.70;0.40;;;18.90;99.90;;;;;;5053265;28;20936;-70
2022/12/31 13:33:18;;;;;;;0.70;0.40;;;19.00;99.90;;;;;;5052975;28;20509;-70
2022/12/31 13:35:55;;;;;;;0.80;0.43;;;19.00;99.90;;;;;;5053823;28;20554;-71
2022/12/31 13:38:49;;;;;;;0.90;0.60;;;18.90;99.90;;;;;;5053890;28;20516;-70
2022/12/31 13:41:42;;;;;;;1.07;0.57;;;18.90;99.90;;;;;;5053831;28;20502;-70
2022/12/31 13:44:07;;;;;;;1.00;0.50;;;18.90;99.90;;;;;;5053356;28;20462;-70
2022/12/31 13:46:50;;;;;;;1.83;0.60;;;18.80;99.90;;;;;;5054549;28;20440;-69
2022/12/31 13:49:38;;;;;;;2.03;0.60;;;18.80;99.90;;;;;;5053887;28;20239;-71
2022/12/31 13:52:13;;;;;;;4.13;0.50;;;18.80;99.90;;;;;;5053523;28;20471;-70
2022/12/31 13:54:52;;;;;;;0.70;0.40;;;18.70;99.90;;;;;;5053568;28;20470;-71
2022/12/31 13:57:35;;;;;;;1.67;0.50;;;18.70;99.90;;;;;;5053721;28;20809;-70
2022/12/31 14:00:21;;;;;;;0.70;0.47;;;18.70;99.90;;;;;;5054098;28;20489;-71
2022/12/31 14:02:58;;;;;;;0.70;0.40;;;18.70;99.90;;;;;;5052590;28;21003;-69
2022/12/31 14:05:29;;;;;;;0.90;0.50;;;18.70;99.90;;;;;;5053887;28;20443;-71
2022/12/31 14:07:59;;;;;;;0.70;0.40;;;18.60;99.90;;;;;;5053549;28;20464;-71
2022/12/31 14:10:49;;;;;;;1.20;0.40;;;18.60;99.90;;;;;;5053149;28;20443;-70
2022/12/31 14:13:36;;;;;;;0.70;0.50;;;18.50;99.90;;;;;;5052816;28;20490;-71
2022/12/31 14:16:14;;;;;;;51.33;3.40;;;18.50;99.90;;;;;;5053352;28;21012;-71
2022/12/31 14:18:45;;;;;;;0.93;0.40;;;18.50;99.90;;;;;;5052599;28;20983;-70
2022/12/31 14:21:26;;;;;;;0.70;0.43;;;18.50;99.90;;;;;;5052919;28;20467;-70
2022/12/31 14:24:01;;;;;;;1.00;0.50;;;18.40;99.90;;;;;;5052547;28;20467;-70
2022/12/31 14:26:51;;;;;;;0.70;0.50;;;18.40;99.90;;;;;;5053229;28;20439;-71
2022/12/31 14:29:17;;;;;;;0.70;0.40;;;18.40;99.90;;;;;;5052707;28;20443;-69
2022/12/31 14:31:50;;;;;;;1.97;0.60;;;18.30;99.90;;;;;;5052323;28;20485;-69
2022/12/31 14:34:55;;;;;;;50.63;3.80;;;18.30;99.90;;;;;;5053754;28;20458;-71
2022/12/31 14:37:41;;;;;;;0.80;0.60;;;18.20;99.90;;;;;;5053566;28;20455;-69
2022/12/31 14:40:27;;;;;;;0.80;0.70;;;18.20;99.90;;;;;;5053182;28;20469;-68
2022/12/31 14:43:12;;;;;;;0.90;0.50;;;18.30;99.90;;;;;;5053242;28;20593;-69
2022/12/31 14:45:56;;;;;;;0.80;0.60;;;18.20;99.90;;;;;;5053707;28;20503;-70
2022/12/31 14:48:46;;;;;;;1.20;0.50;;;18.20;99.90;;;;;;5053684;28;20502;-70
2022/12/31 14:51:13;;;;;;;4.30;0.60;;;18.10;99.90;;;;;;5053553;28;20431;-70
2022/12/31 14:53:38;;;;;;;4.17;0.63;;;18.10;99.90;;;;;;5053218;28;20430;-69
2022/12/31 14:56:38;;;;;;;0.93;0.53;;;18.00;99.90;;;;;;5053598;28;20412;-69
2022/12/31 14:59:20;;;;;;;0.97;0.60;;;18.00;99.90;;;;;;5053351;28;20191;-69